Incline Creek, Nevada Weather observations

Data are for observation ending at time listed.
 Day   Time    Ave.   Ave.  Ave.  Vector   Max.   Stn.    Total    Solar   Ave.   Snow 
  of    of     Air    Rel.  Wind   Wind    Wind   Baro.  Precip.   Rad.    Soil   Depth
Year   Day     Temp.  Hum.  Speed  Dir.    Gust   Pres.                    Temp.       
2015   (PST)    F      %     mph   deg.    mph     mb.     in.     W/m2     F      in. 
---------------------------------------------------------------------------------------  
 141    7:00   39.4   106    0.2    23      1.1   999.0    0.00      78    999.0   83.9
 141    7:10   39.9   104    0.3    17      1.1   999.0    0.00     102    999.0   83.9
 141    7:20   40.5   102    0.5   149      2.3   999.0    0.00     143    999.0   83.9
 141    7:30   41.2    93    0.7    65      1.9   999.0    0.00     153    999.0   83.9
 141    7:40   41.8    94    1.0    19      2.4   999.0    0.00     140    999.0   83.9
 141    7:50   42.9    79    1.3   246      3.7   999.0    0.00     192    999.0   83.9
 141    8:00   43.5    74    2.2   120      6.2   999.0    0.00     160    999.0    0.0
 141    8:10   43.7    74    1.5   280      3.6   999.0    0.00     178    999.0    0.0
 141    8:20   44.0    74    1.9   283      4.0   999.0    0.00     209    999.0    0.0
 141    8:30   44.9    71    1.9   304      5.8   999.0    0.00     592    999.0    0.0
 141    8:40   46.9    67    2.7   340      9.2   999.0    0.00     621    999.0    0.0
 141    8:50   46.0    68    2.8   100      8.9   999.0    0.00     424    999.0    0.0
 141    9:00   45.8    67    3.4   315      9.8   999.0    0.00     539    999.0    0.0
 141    9:10   46.9    65    3.5   197     10.0   999.0    0.00     967    999.0    0.0
 141    9:20   47.3    64    4.0   194     11.1   999.0    0.00     552    999.0    0.0
 141    9:30   47.0    65    3.4   347      9.4   999.0    0.00     450    999.0    0.0
 141    9:40   47.1    63    4.3   173     10.3   999.0    0.00     498    999.0    0.0
 141    9:50   46.5    65    2.7   208      6.7   999.0    0.00     262    999.0    0.0
 141   10:00   46.9    65    2.2   349      6.1   999.0    0.00     372    999.0    0.0
 141   10:10   47.2    65    2.6   164      7.4   999.0    0.00     305    999.0    0.0
 141   10:20   47.8    63    3.9   165      8.5   999.0    0.00     889    999.0    0.0
 141   10:30   48.7    62    3.0   357      7.7   999.0    0.00     328    999.0    0.0
 141   10:40   48.4    60    3.9    92      8.9   999.0    0.00     668    999.0    0.0
 141   10:50   50.5    57    2.6    89      8.2   999.0    0.00    1054    999.0    0.0
 141   11:00   51.5    55    3.4   194      9.6   999.0    0.00    1241    999.0   83.9
 141   11:10   51.1    55    3.2   127     15.3   999.0    0.00     604    999.0    0.0
 141   11:20   49.9    58    3.0   122      7.4   999.0    0.00     362    999.0   83.9
 141   11:30   48.4    60    4.5   340      9.3   999.0    0.00     239    999.0    0.0
 141   11:40   47.5    58    2.4   121      6.4   999.0    0.00     196    999.0    0.0
 141   11:50   46.8    62    3.3   179     11.9   999.0    0.00      89    999.0    0.0
 141   12:00   42.4    76    4.6   108     12.2   999.0    0.00      38    999.0    0.0
 141   12:10   39.0    93    2.4   359      5.0   999.0    0.00      45    999.0    0.0
 141   12:20   38.7   102    1.6    27      3.4   999.0    0.00      56    999.0    0.0
 141   12:30   39.1   105    2.1    41      4.1   999.0    0.00      85    999.0    0.0
 141   12:40   39.6   103    3.2    23      8.2   999.0    0.00     120    999.0    0.0
 141   12:50   38.9    92    4.2    25      7.8   999.0    0.00     149    999.0    0.0
 141   13:00   39.3    95    2.5    44      4.8   999.0    0.00     242    999.0    0.0
 141   13:10   40.3    94    2.2    52      5.0   999.0    0.00     279    999.0    0.0
 141   13:20   41.5    94    1.6    69      4.3   999.0    0.00     301    999.0    0.0
 141   13:30   42.3    89    1.3    72      2.5   999.0    0.00     268    999.0    0.0
 141   13:40   42.7    87    1.9    62      3.6   999.0    0.00     218    999.0    0.0
 141   13:50   42.8    84    1.0    60      3.2   999.0    0.00     227    999.0    0.0
 141   14:00   43.5    82    1.2    94      1.9   999.0    0.00     348    999.0    0.0
 141   14:10   44.8    77    1.4   120      3.9   999.0    0.00     510    999.0    0.0
 141   14:20   45.2    79    3.6   155      7.1   999.0    0.00     631    999.0    0.0
 141   14:30   45.4    81    4.3   155      8.3   999.0    0.00     485    999.0    0.0
 141   14:40   44.9    80    4.1   150      8.6   999.0    0.00     504    999.0    0.0
 141   14:50   45.0    77    4.1   164      7.3   999.0    0.00     366    999.0    0.0
 141   15:00   44.6    77    4.3   168      7.8   999.0    0.00     304    999.0    0.0
 141   15:10   44.3    76    3.9   160      6.3   999.0    0.00     303    999.0    0.0
 141   15:20   44.0    77    3.6   163      6.4   999.0    0.00     275    999.0    0.0
 141   15:30   43.9    78    4.2   165      7.8   999.0    0.00     292    999.0    0.0
 141   15:40   43.9    76    4.3   170      7.3   999.0    0.00     240    999.0    0.0
 141   15:50   43.7    74    3.4   167     10.0   999.0    0.00     157    999.0    0.0
 141   16:00   43.6    79    3.4   182      9.9   999.0    0.00     154    999.0    0.0
 141   16:10   43.2    82    1.8     5      3.6   999.0    0.00      57    999.0    0.0
 141   16:20   41.5    91    1.3    43      4.2   999.0    0.00      54    999.0    0.0
 141   16:30   41.0    94    0.3   312      1.3   999.0    0.00      64    999.0    0.0
 141   16:40   41.2   101    0.6    13      1.6   999.0    0.00      44    999.0    0.0
 141   16:50   41.3   100    0.2   329      1.5   999.0    0.00      38    999.0    0.0
 141   17:00   41.6   104    0.5    63      1.7   999.0    0.00      48    999.0    0.0
 141   17:10   41.6   103    0.4    43      1.1   999.0    0.00      51    999.0    0.0
 141   17:20   41.8    99    0.8    30      1.4   999.0    0.00      45    999.0    0.0
 141   17:30   42.0    97    0.4    89      1.5   999.0    0.00      40    999.0    0.0
 141   17:40   42.0   102    0.6    78      1.8   999.0    0.00      28    999.0    0.0
 141   17:50   41.6   104    1.4    20      2.5   999.0    0.00      21    999.0    0.0
 141   18:00   41.5   101    1.1   150      3.2   999.0    0.00      20    999.0    0.0
 141   18:10   41.6   100    1.0    33      2.2   999.0    0.00      30    999.0    0.0
 141   18:20   41.4   102    1.2   104      2.4   999.0    0.00      27    999.0    0.0
 141   18:30   41.0    98    1.2   111      3.1   999.0    0.00      12    999.0    0.0
 141   18:40   40.8   100    0.1    46      1.6   999.0    0.00       7    999.0    0.0
 141   18:50   40.5   103    0.8    30      1.9   999.0    0.00       4    999.0    0.0
 141   19:00   40.2   106    0.5    43      1.4   999.0    0.00       3    999.0    0.0
 141   19:10   40.1   106    0.1   359      1.0   999.0    0.00       1    999.0    0.0
 141   19:20   40.0   106    0.6     8      1.8   999.0    0.00       0    999.0    0.0
 141   19:30   39.9   107    0.1     5      0.9   999.0    0.00       0    999.0    0.0
 141   19:40   39.7   107    1.2    21      2.0   999.0    0.00       0    999.0    0.0
 141   19:50   39.6   108    0.5    56      1.1   999.0    0.00       0    999.0    0.0
 141   20:00   39.4   108    0.6    39      1.8   999.0    0.00       0    999.0    0.0
 141   20:10   39.3   108    0.9    42      1.8   999.0    0.00       0    999.0    0.0
 141   20:20   39.1   108    0.6   354      1.7   999.0    0.00       0    999.0    0.0
 141   20:30   39.0   107    1.7   342      2.5   999.0    0.00       0    999.0    0.0
 141   20:40   39.0   105    0.7   323      1.5   999.0    0.00       0    999.0    0.0
 141   20:50   38.8   106    0.7    50      1.5   999.0    0.00       0    999.0    0.0
 141   21:00   38.6   107    0.3    58      1.0   999.0    0.00       0    999.0    0.0
 141   21:10   38.5   108    0.9    22      1.9   999.0    0.00       0    999.0    0.0
 141   21:20   38.4   108    0.8    23      1.6   999.0    0.00       0    999.0    0.0
 141   21:30   38.4   109    0.8    20      1.3   999.0    0.00       0    999.0    0.0
 141   21:40   38.2   109    0.3     6      1.3   999.0    0.00       0    999.0    0.0
 141   21:50   38.1   109    0.2   336      1.2   999.0    0.00       0    999.0    0.0
 141   22:00   38.0   109    1.0    34      1.5   999.0    0.00       0    999.0    0.0
 141   22:10   37.9   109    0.7    11      1.7   999.0    0.00       0    999.0    0.0
 141   22:20   37.9   109    0.7     4      2.3   999.0    0.00       0    999.0    0.0
 141   22:30   37.9   110    2.1   358      4.9   999.0    0.00       0    999.0    0.0
 141   22:40   38.1   109    1.4   326      2.8   999.0    0.00       0    999.0    0.0
 141   22:50   38.1   109    1.4   350      2.4   999.0    0.00       0    999.0    0.0
 141   23:00   38.1   108    1.4   328      3.2   999.0    0.00       0    999.0    0.0
 141   23:10   38.3   108    1.1   343      2.4   999.0    0.00       0    999.0    0.0
 141   23:20   38.3   108    1.5   349      3.6   999.0    0.00       0    999.0    0.0
 141   23:30   38.4   108    1.2   326      2.4   999.0    0.00       0    999.0    0.0
 141   23:40   38.5   108    0.9    10      1.4   999.0    0.00       0    999.0    0.0
 141   23:50   38.4   108    0.2    46      1.0   999.0    0.00       0    999.0    0.0
 142    0:00   38.3   109    0.1    47      0.7   999.0    0.00       0    999.0    0.0
 142    0:10   38.4   109    0.4    32      1.0   999.0    0.00       0    999.0    0.0
 142    0:20   38.4   109    0.8    20      1.8   999.0    0.00       0    999.0    0.0
 142    0:30   38.4   109    0.9   337      1.7   999.0    0.00       0    999.0    0.0
 142    0:40   38.5   109    0.8    28      1.8   999.0    0.00       0    999.0    0.0
 142    0:50   38.4   109    0.0     0      0.0   999.0    0.00       0    999.0    0.0
 142    1:00   38.5   109    0.1    51      0.8   999.0    0.00       0    999.0    0.0
 142    1:10   38.4   110    0.0    72      0.9   999.0    0.00       0    999.0    0.0
 142    1:20   38.4   110    0.1    70      0.9   999.0    0.00       0    999.0    0.0
 142    1:30   38.4   110    0.2    51      1.1   999.0    0.00       0    999.0    0.0
 142    1:40   38.4   110    0.1    46      0.9   999.0    0.00       0    999.0    0.0
 142    1:50   38.3   110    0.3    57      1.1   999.0    0.00       0    999.0    0.0
 142    2:00   38.2   110    0.1   291      0.9   999.0    0.00       0    999.0    0.0
 142    2:10   38.0   110    0.3    57      1.1   999.0    0.00       0    999.0    0.0
 142    2:20   38.0   110    0.0     0      0.0   999.0    0.00       0    999.0    0.0
 142    2:30   38.1   110    0.3    33      0.8   999.0    0.00       0    999.0    0.0
 142    2:40   38.1   110    0.9    25      1.9   999.0    0.00       0    999.0    0.0
 142    2:50   38.2   110    0.6   358      1.3   999.0    0.00       0    999.0    0.0
 142    3:00   38.3   110    1.0   331      1.4   999.0    0.00       0    999.0    0.0
 142    3:10   38.4   110    0.8    16      1.7   999.0    0.00       0    999.0    0.0
 142    3:20   38.4   110    0.6    27      1.4   999.0    0.00       0    999.0    0.0
 142    3:30   38.4   110    0.2    38      1.2   999.0    0.00       0    999.0    0.0
 142    3:40   38.3   110    0.7   301      1.4   999.0    0.00       0    999.0    0.0
 142    3:50   38.3   110    0.3     6      1.1   999.0    0.00       0    999.0    0.0
 142    4:00   38.3   110    0.7    32      1.3   999.0    0.00       0    999.0    0.0
 142    4:10   38.3   110    0.3    24      1.1   999.0    0.00       0    999.0    0.0
 142    4:20   38.3   110    0.7    18      1.8   999.0    0.00       0    999.0    0.0
 142    4:30   38.2   110    1.1    21      1.7   999.0    0.00       0    999.0    0.0
 142    4:40   37.9   110    1.1    22      1.6   999.0    0.00       1    999.0    0.0
 142    4:50   37.7   110    0.6    14      1.4   999.0    0.00       2    999.0    0.0
 142    5:00   37.7   110    1.1    19      1.8   999.0    0.00       4    999.0    0.0
 142    5:10   37.7   110    0.8    12      1.7   999.0    0.00      13    999.0    0.0
 142    5:20   37.9   110    0.7   344      1.6   999.0    0.00      21    999.0    0.0
 142    5:30   38.1   110    1.0   350      2.1   999.0    0.00      28    999.0    0.0
 142    5:40   38.3   110    0.4   311      1.7   999.0    0.00      28    999.0    0.0
 142    5:50   38.5   110    0.6   338      1.2   999.0    0.00      26    999.0    0.0
 142    6:00   38.7   109    0.7    28      1.6   999.0    0.00      26    999.0    0.0
 142    6:10   38.8   109    0.6   357      1.5   999.0    0.00      32    999.0    0.0
 142    6:20   39.1   109    0.4    43      1.4   999.0    0.00      55    999.0    0.0
 142    6:30   39.5   109    0.3    92      1.3   999.0    0.00      68    999.0    0.0
 142    6:40   40.0   109    0.1   109      1.2   999.0    0.00      87    999.0    0.0
 142    6:50   40.7   107    0.4    72      1.2   999.0    0.00      89    999.0    0.0

Return to Incline Creek graphs page.


Western Regional Climate Center,wrcc@dri.edu